sensor_id;sensor_type;location;lat;lon;timestamp;P1;durP1;ratioP1;P2;durP2;ratioP2
70829;SDS011;58451;51.550;7.208;2023-03-05T00:01:03;9.10;;;0.90;;
70829;SDS011;58451;51.550;7.208;2023-03-05T00:02:36;7.10;;;0.70;;
70829;SDS011;58451;51.550;7.208;2023-03-05T00:04:12;8.60;;;1.50;;
70829;SDS011;58451;51.550;7.208;2023-03-05T00:05:44;7.90;;;0.80;;
70829;SDS011;58451;51.550;7.208;2023-03-05T00:07:16;7.70;;;0.70;;
70829;SDS011;58451;51.550;7.208;2023-03-05T00:08:48;16.60;;;2.30;;
70829;SDS011;58451;51.550;7.208;2023-03-05T00:10:20;7.10;;;0.80;;
70829;SDS011;58451;51.550;7.208;2023-03-05T00:11:52;8.70;;;1.30;;
70829;SDS011;58451;51.550;7.208;2023-03-05T00:13:24;7.50;;;0.80;;
70829;SDS011;58451;51.550;7.208;2023-03-05T00:14:57;8.30;;;1.30;;
70829;SDS011;58451;51.550;7.208;2023-03-05T00:16:29;6.30;;;0.70;;
70829;SDS011;58451;51.550;7.208;2023-03-05T00:18:01;9.70;;;1.40;;
70829;SDS011;58451;51.550;7.208;2023-03-05T00:19:33;9.10;;;1.00;;
70829;SDS011;58451;51.550;7.208;2023-03-05T00:21:18;9.90;;;1.30;;
70829;SDS011;58451;51.550;7.208;2023-03-05T00:22:53;12.30;;;1.40;;
70829;SDS011;58451;51.550;7.208;2023-03-05T00:24:25;8.90;;;1.10;;
70829;SDS011;58451;51.550;7.208;2023-03-05T00:26:00;10.90;;;1.70;;
70829;SDS011;58451;51.550;7.208;2023-03-05T00:27:32;9.00;;;1.40;;
70829;SDS011;58451;51.550;7.208;2023-03-05T00:29:06;10.30;;;1.30;;
70829;SDS011;58451;51.550;7.208;2023-03-05T00:30:40;9.90;;;1.00;;
70829;SDS011;58451;51.550;7.208;2023-03-05T00:32:12;9.40;;;1.10;;
70829;SDS011;58451;51.550;7.208;2023-03-05T00:33:44;10.60;;;1.50;;
70829;SDS011;58451;51.550;7.208;2023-03-05T00:35:16;12.60;;;1.30;;
70829;SDS011;58451;51.550;7.208;2023-03-05T00:36:50;12.80;;;1.40;;
70829;SDS011;58451;51.550;7.208;2023-03-05T00:38:23;9.70;;;0.90;;
70829;SDS011;58451;51.550;7.208;2023-03-05T00:39:56;6.80;;;1.00;;
70829;SDS011;58451;51.550;7.208;2023-03-05T00:41:28;8.00;;;1.10;;
70829;SDS011;58451;51.550;7.208;2023-03-05T00:42:59;7.60;;;1.00;;
70829;SDS011;58451;51.550;7.208;2023-03-05T00:44:32;7.70;;;1.30;;
70829;SDS011;58451;51.550;7.208;2023-03-05T00:46:03;6.70;;;1.10;;
70829;SDS011;58451;51.550;7.208;2023-03-05T00:47:36;8.00;;;1.40;;
70829;SDS011;58451;51.550;7.208;2023-03-05T00:49:09;9.30;;;1.10;;
70829;SDS011;58451;51.550;7.208;2023-03-05T00:50:41;4.90;;;0.50;;
70829;SDS011;58451;51.550;7.208;2023-03-05T00:52:12;8.80;;;0.70;;
70829;SDS011;58451;51.550;7.208;2023-03-05T00:53:44;5.70;;;0.80;;
70829;SDS011;58451;51.550;7.208;2023-03-05T00:55:17;7.90;;;1.20;;
70829;SDS011;58451;51.550;7.208;2023-03-05T00:56:49;6.20;;;1.10;;
70829;SDS011;58451;51.550;7.208;2023-03-05T00:58:23;7.80;;;0.80;;
70829;SDS011;58451;51.550;7.208;2023-03-05T00:59:54;8.80;;;1.00;;
70829;SDS011;58451;51.550;7.208;2023-03-05T01:01:26;11.30;;;1.40;;
70829;SDS011;58451;51.550;7.208;2023-03-05T01:02:59;8.80;;;1.00;;
70829;SDS011;58451;51.550;7.208;2023-03-05T01:04:31;6.40;;;0.90;;
70829;SDS011;58451;51.550;7.208;2023-03-05T01:06:05;6.40;;;1.00;;
70829;SDS011;58451;51.550;7.208;2023-03-05T01:07:40;4.30;;;0.70;;
70829;SDS011;58451;51.550;7.208;2023-03-05T01:09:12;8.60;;;0.90;;
70829;SDS011;58451;51.550;7.208;2023-03-05T01:10:44;10.10;;;1.10;;
70829;SDS011;58451;51.550;7.208;2023-03-05T01:12:15;7.00;;;1.00;;
70829;SDS011;58451;51.550;7.208;2023-03-05T01:13:47;7.00;;;0.80;;
70829;SDS011;58451;51.550;7.208;2023-03-05T01:15:19;10.40;;;1.10;;
70829;SDS011;58451;51.550;7.208;2023-03-05T01:16:53;7.70;;;0.80;;
70829;SDS011;58451;51.550;7.208;2023-03-05T01:18:25;7.40;;;0.80;;
70829;SDS011;58451;51.550;7.208;2023-03-05T01:19:56;6.60;;;0.90;;
70829;SDS011;58451;51.550;7.208;2023-03-05T01:21:29;5.30;;;0.70;;
70829;SDS011;58451;51.550;7.208;2023-03-05T01:23:01;7.10;;;0.80;;
70829;SDS011;58451;51.550;7.208;2023-03-05T01:24:33;6.10;;;0.70;;
70829;SDS011;58451;51.550;7.208;2023-03-05T01:26:05;9.30;;;0.80;;
70829;SDS011;58451;51.550;7.208;2023-03-05T01:27:39;12.30;;;1.60;;
70829;SDS011;58451;51.550;7.208;2023-03-05T01:29:11;6.30;;;0.80;;
70829;SDS011;58451;51.550;7.208;2023-03-05T01:30:44;9.30;;;0.90;;
70829;SDS011;58451;51.550;7.208;2023-03-05T01:32:15;8.90;;;1.40;;
70829;SDS011;58451;51.550;7.208;2023-03-05T01:33:50;8.30;;;1.00;;
70829;SDS011;58451;51.550;7.208;2023-03-05T01:35:24;9.10;;;1.40;;
70829;SDS011;58451;51.550;7.208;2023-03-05T01:36:57;11.20;;;1.50;;
70829;SDS011;58451;51.550;7.208;2023-03-05T01:38:28;13.90;;;1.40;;
70829;SDS011;58451;51.550;7.208;2023-03-05T01:40:00;9.30;;;1.30;;
70829;SDS011;58451;51.550;7.208;2023-03-05T01:41:32;10.70;;;1.20;;
70829;SDS011;58451;51.550;7.208;2023-03-05T01:45:06;10.50;;;2.10;;
70829;SDS011;58451;51.550;7.208;2023-03-05T01:46:42;11.50;;;1.80;;
70829;SDS011;58451;51.550;7.208;2023-03-05T01:48:15;12.50;;;2.80;;
70829;SDS011;58451;51.550;7.208;2023-03-05T01:49:46;11.20;;;2.10;;
70829;SDS011;58451;51.550;7.208;2023-03-05T01:51:21;11.50;;;2.70;;
70829;SDS011;58451;51.550;7.208;2023-03-05T01:53:00;9.60;;;1.90;;
70829;SDS011;58451;51.550;7.208;2023-03-05T01:54:42;10.70;;;2.50;;
70829;SDS011;58451;51.550;7.208;2023-03-05T01:56:17;13.50;;;2.20;;
70829;SDS011;58451;51.550;7.208;2023-03-05T01:57:52;12.50;;;1.70;;
70829;SDS011;58451;51.550;7.208;2023-03-05T01:59:38;10.80;;;2.40;;
70829;SDS011;58451;51.550;7.208;2023-03-05T02:01:12;9.30;;;2.00;;
70829;SDS011;58451;51.550;7.208;2023-03-05T02:02:47;13.30;;;2.20;;
70829;SDS011;58451;51.550;7.208;2023-03-05T02:04:25;14.30;;;2.60;;
70829;SDS011;58451;51.550;7.208;2023-03-05T02:06:01;10.30;;;2.10;;
70829;SDS011;58451;51.550;7.208;2023-03-05T02:07:34;8.90;;;1.90;;
70829;SDS011;58451;51.550;7.208;2023-03-05T02:09:08;10.00;;;1.90;;
70829;SDS011;58451;51.550;7.208;2023-03-05T02:10:45;10.50;;;2.00;;
70829;SDS011;58451;51.550;7.208;2023-03-05T02:12:20;9.60;;;1.90;;
70829;SDS011;58451;51.550;7.208;2023-03-05T02:13:53;11.20;;;2.00;;
70829;SDS011;58451;51.550;7.208;2023-03-05T02:15:25;11.40;;;1.80;;
70829;SDS011;58451;51.550;7.208;2023-03-05T02:16:57;9.40;;;1.50;;
70829;SDS011;58451;51.550;7.208;2023-03-05T02:18:29;7.40;;;1.10;;
70829;SDS011;58451;51.550;7.208;2023-03-05T02:20:07;9.00;;;1.40;;
70829;SDS011;58451;51.550;7.208;2023-03-05T02:21:48;10.80;;;1.70;;
70829;SDS011;58451;51.550;7.208;2023-03-05T02:23:25;8.30;;;1.40;;
70829;SDS011;58451;51.550;7.208;2023-03-05T02:25:00;5.10;;;0.90;;
70829;SDS011;58451;51.550;7.208;2023-03-05T02:26:31;5.10;;;0.90;;
70829;SDS011;58451;51.550;7.208;2023-03-05T02:29:56;9.00;;;1.00;;
70829;SDS011;58451;51.550;7.208;2023-03-05T02:31:28;7.50;;;0.80;;
70829;SDS011;58451;51.550;7.208;2023-03-05T02:33:02;8.10;;;1.40;;
70829;SDS011;58451;51.550;7.208;2023-03-05T02:34:35;7.70;;;0.70;;
70829;SDS011;58451;51.550;7.208;2023-03-05T02:36:08;7.40;;;0.90;;
70829;SDS011;58451;51.550;7.208;2023-03-05T02:37:40;3.70;;;0.60;;
70829;SDS011;58451;51.550;7.208;2023-03-05T02:39:13;3.70;;;0.50;;
70829;SDS011;58451;51.550;7.208;2023-03-05T02:40:45;4.70;;;0.50;;
70829;SDS011;58451;51.550;7.208;2023-03-05T02:42:17;7.80;;;0.70;;
70829;SDS011;58451;51.550;7.208;2023-03-05T02:43:49;7.40;;;0.60;;
70829;SDS011;58451;51.550;7.208;2023-03-05T02:45:21;4.90;;;0.60;;
70829;SDS011;58451;51.550;7.208;2023-03-05T02:46:53;6.10;;;0.80;;
70829;SDS011;58451;51.550;7.208;2023-03-05T02:48:25;5.40;;;0.60;;
70829;SDS011;58451;51.550;7.208;2023-03-05T02:49:57;5.90;;;0.60;;
70829;SDS011;58451;51.550;7.208;2023-03-05T02:51:29;5.90;;;0.50;;
70829;SDS011;58451;51.550;7.208;2023-03-05T02:53:02;7.20;;;0.80;;
70829;SDS011;58451;51.550;7.208;2023-03-05T02:54:34;7.50;;;1.00;;
70829;SDS011;58451;51.550;7.208;2023-03-05T02:56:07;6.40;;;0.70;;
70829;SDS011;58451;51.550;7.208;2023-03-05T02:57:39;8.30;;;0.90;;
70829;SDS011;58451;51.550;7.208;2023-03-05T02:59:11;9.70;;;0.60;;
70829;SDS011;58451;51.550;7.208;2023-03-05T03:00:43;5.90;;;0.50;;
70829;SDS011;58451;51.550;7.208;2023-03-05T03:02:17;15.60;;;1.60;;
70829;SDS011;58451;51.550;7.208;2023-03-05T03:03:49;8.30;;;0.80;;
70829;SDS011;58451;51.550;7.208;2023-03-05T03:05:21;7.70;;;0.80;;
70829;SDS011;58451;51.550;7.208;2023-03-05T03:06:53;6.00;;;1.00;;
70829;SDS011;58451;51.550;7.208;2023-03-05T03:08:25;9.40;;;0.90;;
70829;SDS011;58451;51.550;7.208;2023-03-05T03:09:56;6.90;;;0.70;;
70829;SDS011;58451;51.550;7.208;2023-03-05T03:11:28;6.00;;;0.50;;
70829;SDS011;58451;51.550;7.208;2023-03-05T03:13:00;6.90;;;0.80;;
70829;SDS011;58451;51.550;7.208;2023-03-05T03:14:33;8.00;;;0.80;;
70829;SDS011;58451;51.550;7.208;2023-03-05T03:16:11;6.30;;;0.80;;
70829;SDS011;58451;51.550;7.208;2023-03-05T03:17:45;8.70;;;0.90;;
70829;SDS011;58451;51.550;7.208;2023-03-05T03:19:16;9.90;;;0.90;;
70829;SDS011;58451;51.550;7.208;2023-03-05T03:20:48;8.10;;;1.00;;
70829;SDS011;58451;51.550;7.208;2023-03-05T03:22:20;6.80;;;0.90;;
70829;SDS011;58451;51.550;7.208;2023-03-05T03:23:52;9.40;;;1.50;;
70829;SDS011;58451;51.550;7.208;2023-03-05T03:25:24;6.70;;;0.90;;
70829;SDS011;58451;51.550;7.208;2023-03-05T03:26:56;7.50;;;1.20;;
70829;SDS011;58451;51.550;7.208;2023-03-05T03:28:27;12.70;;;2.20;;
70829;SDS011;58451;51.550;7.208;2023-03-05T03:29:59;8.10;;;1.60;;
70829;SDS011;58451;51.550;7.208;2023-03-05T03:31:34;11.50;;;1.50;;
70829;SDS011;58451;51.550;7.208;2023-03-05T03:33:06;5.20;;;1.00;;
70829;SDS011;58451;51.550;7.208;2023-03-05T03:34:38;11.20;;;1.30;;
70829;SDS011;58451;51.550;7.208;2023-03-05T03:36:10;9.70;;;1.10;;
70829;SDS011;58451;51.550;7.208;2023-03-05T03:37:42;8.40;;;1.40;;
70829;SDS011;58451;51.550;7.208;2023-03-05T03:39:15;9.10;;;1.50;;
70829;SDS011;58451;51.550;7.208;2023-03-05T03:40:47;7.70;;;1.40;;
70829;SDS011;58451;51.550;7.208;2023-03-05T03:42:20;9.30;;;1.30;;
70829;SDS011;58451;51.550;7.208;2023-03-05T03:43:53;8.10;;;1.10;;
70829;SDS011;58451;51.550;7.208;2023-03-05T03:45:24;12.00;;;1.60;;
70829;SDS011;58451;51.550;7.208;2023-03-05T03:46:56;10.00;;;1.60;;
70829;SDS011;58451;51.550;7.208;2023-03-05T03:48:28;8.80;;;1.40;;
70829;SDS011;58451;51.550;7.208;2023-03-05T03:49:59;9.90;;;1.30;;
70829;SDS011;58451;51.550;7.208;2023-03-05T03:51:33;10.00;;;1.60;;
70829;SDS011;58451;51.550;7.208;2023-03-05T03:53:04;10.30;;;1.70;;
70829;SDS011;58451;51.550;7.208;2023-03-05T03:54:37;8.10;;;0.80;;
70829;SDS011;58451;51.550;7.208;2023-03-05T03:56:08;10.90;;;1.40;;
70829;SDS011;58451;51.550;7.208;2023-03-05T03:57:40;12.10;;;1.90;;
70829;SDS011;58451;51.550;7.208;2023-03-05T03:59:13;5.40;;;1.10;;
70829;SDS011;58451;51.550;7.208;2023-03-05T04:00:45;6.90;;;1.40;;
70829;SDS011;58451;51.550;7.208;2023-03-05T04:02:17;10.70;;;1.50;;
70829;SDS011;58451;51.550;7.208;2023-03-05T04:03:49;6.00;;;1.40;;
70829;SDS011;58451;51.550;7.208;2023-03-05T04:05:21;9.50;;;1.50;;
70829;SDS011;58451;51.550;7.208;2023-03-05T04:06:52;9.20;;;1.90;;
70829;SDS011;58451;51.550;7.208;2023-03-05T04:08:24;7.80;;;1.40;;
70829;SDS011;58451;51.550;7.208;2023-03-05T04:09:56;10.80;;;1.90;;
70829;SDS011;58451;51.550;7.208;2023-03-05T04:11:28;7.80;;;1.90;;
70829;SDS011;58451;51.550;7.208;2023-03-05T04:12:59;14.20;;;1.90;;
70829;SDS011;58451;51.550;7.208;2023-03-05T04:14:32;9.90;;;1.60;;
70829;SDS011;58451;51.550;7.208;2023-03-05T04:16:04;7.40;;;1.50;;
70829;SDS011;58451;51.550;7.208;2023-03-05T04:17:36;10.80;;;1.80;;
70829;SDS011;58451;51.550;7.208;2023-03-05T04:19:08;10.60;;;1.60;;
70829;SDS011;58451;51.550;7.208;2023-03-05T04:20:40;8.80;;;1.40;;
70829;SDS011;58451;51.550;7.208;2023-03-05T04:22:14;9.60;;;1.70;;
70829;SDS011;58451;51.550;7.208;2023-03-05T04:23:47;9.40;;;1.90;;
70829;SDS011;58451;51.550;7.208;2023-03-05T04:25:18;9.70;;;1.80;;
70829;SDS011;58451;51.550;7.208;2023-03-05T04:26:54;8.70;;;1.60;;
70829;SDS011;58451;51.550;7.208;2023-03-05T04:28:26;11.10;;;1.90;;
70829;SDS011;58451;51.550;7.208;2023-03-05T04:29:58;9.50;;;1.40;;
70829;SDS011;58451;51.550;7.208;2023-03-05T04:31:31;8.40;;;1.50;;
70829;SDS011;58451;51.550;7.208;2023-03-05T04:33:03;9.60;;;2.10;;
70829;SDS011;58451;51.550;7.208;2023-03-05T04:34:36;8.30;;;1.80;;
70829;SDS011;58451;51.550;7.208;2023-03-05T04:36:08;14.70;;;3.00;;
70829;SDS011;58451;51.550;7.208;2023-03-05T04:37:40;8.40;;;2.30;;
70829;SDS011;58451;51.550;7.208;2023-03-05T04:39:12;13.70;;;3.00;;
70829;SDS011;58451;51.550;7.208;2023-03-05T04:40:45;10.80;;;2.80;;
70829;SDS011;58451;51.550;7.208;2023-03-05T04:42:17;10.20;;;3.00;;
70829;SDS011;58451;51.550;7.208;2023-03-05T04:43:50;10.30;;;2.60;;
70829;SDS011;58451;51.550;7.208;2023-03-05T04:45:22;15.50;;;2.60;;
70829;SDS011;58451;51.550;7.208;2023-03-05T04:46:53;11.70;;;2.50;;
70829;SDS011;58451;51.550;7.208;2023-03-05T04:48:25;10.40;;;2.10;;
70829;SDS011;58451;51.550;7.208;2023-03-05T04:49:57;8.90;;;2.50;;
70829;SDS011;58451;51.550;7.208;2023-03-05T04:51:29;9.00;;;2.20;;
70829;SDS011;58451;51.550;7.208;2023-03-05T04:53:01;9.30;;;1.90;;
70829;SDS011;58451;51.550;7.208;2023-03-05T04:54:33;8.30;;;1.80;;
70829;SDS011;58451;51.550;7.208;2023-03-05T04:56:06;10.20;;;1.90;;
70829;SDS011;58451;51.550;7.208;2023-03-05T04:57:38;7.90;;;1.80;;
70829;SDS011;58451;51.550;7.208;2023-03-05T04:59:10;7.20;;;1.50;;
70829;SDS011;58451;51.550;7.208;2023-03-05T05:00:42;10.40;;;1.70;;
70829;SDS011;58451;51.550;7.208;2023-03-05T05:02:13;8.40;;;1.40;;
70829;SDS011;58451;51.550;7.208;2023-03-05T05:03:45;7.40;;;1.60;;
70829;SDS011;58451;51.550;7.208;2023-03-05T05:05:20;6.30;;;1.30;;
70829;SDS011;58451;51.550;7.208;2023-03-05T05:06:55;8.20;;;1.40;;
70829;SDS011;58451;51.550;7.208;2023-03-05T05:08:27;7.00;;;1.40;;
70829;SDS011;58451;51.550;7.208;2023-03-05T05:09:59;9.40;;;1.40;;
70829;SDS011;58451;51.550;7.208;2023-03-05T05:11:31;6.90;;;1.40;;
70829;SDS011;58451;51.550;7.208;2023-03-05T05:13:03;9.80;;;1.60;;
70829;SDS011;58451;51.550;7.208;2023-03-05T05:14:35;7.60;;;1.10;;
70829;SDS011;58451;51.550;7.208;2023-03-05T05:16:07;6.70;;;1.50;;
70829;SDS011;58451;51.550;7.208;2023-03-05T05:17:40;5.90;;;1.20;;
70829;SDS011;58451;51.550;7.208;2023-03-05T05:19:11;5.80;;;0.90;;
70829;SDS011;58451;51.550;7.208;2023-03-05T05:20:43;8.70;;;1.40;;
70829;SDS011;58451;51.550;7.208;2023-03-05T05:22:15;7.60;;;1.10;;
70829;SDS011;58451;51.550;7.208;2023-03-05T05:23:48;5.90;;;1.00;;
70829;SDS011;58451;51.550;7.208;2023-03-05T05:25:19;5.80;;;1.00;;
70829;SDS011;58451;51.550;7.208;2023-03-05T05:26:54;6.10;;;1.20;;
70829;SDS011;58451;51.550;7.208;2023-03-05T05:28:26;3.40;;;0.80;;
70829;SDS011;58451;51.550;7.208;2023-03-05T05:29:58;5.50;;;1.00;;
70829;SDS011;58451;51.550;7.208;2023-03-05T05:31:30;9.10;;;1.20;;
70829;SDS011;58451;51.550;7.208;2023-03-05T05:33:02;4.90;;;0.70;;
70829;SDS011;58451;51.550;7.208;2023-03-05T05:34:34;7.40;;;0.90;;
70829;SDS011;58451;51.550;7.208;2023-03-05T05:36:08;5.00;;;1.00;;
70829;SDS011;58451;51.550;7.208;2023-03-05T05:37:42;8.60;;;1.00;;
70829;SDS011;58451;51.550;7.208;2023-03-05T05:39:14;12.40;;;1.60;;
70829;SDS011;58451;51.550;7.208;2023-03-05T05:40:46;7.40;;;1.10;;
70829;SDS011;58451;51.550;7.208;2023-03-05T05:42:19;8.50;;;1.20;;
70829;SDS011;58451;51.550;7.208;2023-03-05T05:43:53;6.80;;;1.10;;
70829;SDS011;58451;51.550;7.208;2023-03-05T05:45:24;9.00;;;1.30;;
70829;SDS011;58451;51.550;7.208;2023-03-05T05:46:56;5.90;;;1.10;;
70829;SDS011;58451;51.550;7.208;2023-03-05T05:48:29;5.50;;;1.10;;
70829;SDS011;58451;51.550;7.208;2023-03-05T05:50:03;6.80;;;0.90;;
70829;SDS011;58451;51.550;7.208;2023-03-05T05:51:36;7.10;;;1.30;;
70829;SDS011;58451;51.550;7.208;2023-03-05T05:53:07;8.30;;;1.20;;
70829;SDS011;58451;51.550;7.208;2023-03-05T05:54:39;6.40;;;1.30;;
70829;SDS011;58451;51.550;7.208;2023-03-05T05:56:12;6.90;;;0.90;;
70829;SDS011;58451;51.550;7.208;2023-03-05T05:57:44;4.90;;;0.80;;
70829;SDS011;58451;51.550;7.208;2023-03-05T05:59:16;5.60;;;0.90;;
70829;SDS011;58451;51.550;7.208;2023-03-05T06:00:48;7.10;;;1.50;;
70829;SDS011;58451;51.550;7.208;2023-03-05T06:02:20;7.60;;;1.20;;
70829;SDS011;58451;51.550;7.208;2023-03-05T06:03:52;8.90;;;1.40;;
70829;SDS011;58451;51.550;7.208;2023-03-05T06:05:25;7.20;;;1.20;;
70829;SDS011;58451;51.550;7.208;2023-03-05T06:06:57;7.40;;;1.50;;
70829;SDS011;58451;51.550;7.208;2023-03-05T06:08:30;8.20;;;1.40;;
70829;SDS011;58451;51.550;7.208;2023-03-05T06:10:02;8.20;;;1.20;;
70829;SDS011;58451;51.550;7.208;2023-03-05T06:11:36;7.30;;;1.20;;
70829;SDS011;58451;51.550;7.208;2023-03-05T06:13:08;11.50;;;1.50;;
70829;SDS011;58451;51.550;7.208;2023-03-05T06:14:40;6.70;;;1.10;;
70829;SDS011;58451;51.550;7.208;2023-03-05T06:16:15;7.90;;;1.10;;
70829;SDS011;58451;51.550;7.208;2023-03-05T06:17:48;8.70;;;1.50;;
70829;SDS011;58451;51.550;7.208;2023-03-05T06:19:20;7.40;;;1.30;;
70829;SDS011;58451;51.550;7.208;2023-03-05T06:21:00;6.20;;;1.20;;
70829;SDS011;58451;51.550;7.208;2023-03-05T06:22:36;6.60;;;1.30;;
70829;SDS011;58451;51.550;7.208;2023-03-05T06:24:09;7.00;;;1.30;;
70829;SDS011;58451;51.550;7.208;2023-03-05T06:25:41;10.20;;;1.70;;
70829;SDS011;58451;51.550;7.208;2023-03-05T06:27:13;7.00;;;1.70;;
70829;SDS011;58451;51.550;7.208;2023-03-05T06:28:45;8.40;;;1.40;;
70829;SDS011;58451;51.550;7.208;2023-03-05T06:30:16;7.00;;;1.40;;
70829;SDS011;58451;51.550;7.208;2023-03-05T06:31:48;8.10;;;1.50;;
70829;SDS011;58451;51.550;7.208;2023-03-05T06:33:20;11.80;;;1.70;;
70829;SDS011;58451;51.550;7.208;2023-03-05T06:34:52;8.20;;;1.70;;
70829;SDS011;58451;51.550;7.208;2023-03-05T06:36:24;9.10;;;1.30;;
70829;SDS011;58451;51.550;7.208;2023-03-05T06:37:56;9.60;;;1.90;;
70829;SDS011;58451;51.550;7.208;2023-03-05T06:39:28;10.90;;;1.50;;
70829;SDS011;58451;51.550;7.208;2023-03-05T06:41:03;9.50;;;1.60;;
70829;SDS011;58451;51.550;7.208;2023-03-05T06:42:39;10.30;;;1.40;;
70829;SDS011;58451;51.550;7.208;2023-03-05T06:44:11;8.60;;;1.60;;
70829;SDS011;58451;51.550;7.208;2023-03-05T06:45:46;8.90;;;1.60;;
70829;SDS011;58451;51.550;7.208;2023-03-05T06:47:17;9.60;;;1.50;;
70829;SDS011;58451;51.550;7.208;2023-03-05T06:48:50;9.60;;;1.90;;
70829;SDS011;58451;51.550;7.208;2023-03-05T06:50:22;9.60;;;1.70;;
70829;SDS011;58451;51.550;7.208;2023-03-05T06:51:54;12.60;;;1.40;;
70829;SDS011;58451;51.550;7.208;2023-03-05T06:53:26;14.20;;;1.80;;
70829;SDS011;58451;51.550;7.208;2023-03-05T06:54:58;8.00;;;1.80;;
70829;SDS011;58451;51.550;7.208;2023-03-05T06:56:31;12.50;;;1.90;;
70829;SDS011;58451;51.550;7.208;2023-03-05T06:58:02;9.50;;;1.60;;
70829;SDS011;58451;51.550;7.208;2023-03-05T06:59:34;12.50;;;1.70;;
70829;SDS011;58451;51.550;7.208;2023-03-05T07:01:06;10.10;;;1.80;;
70829;SDS011;58451;51.550;7.208;2023-03-05T07:02:38;10.40;;;2.10;;
70829;SDS011;58451;51.550;7.208;2023-03-05T07:04:11;8.10;;;1.50;;
70829;SDS011;58451;51.550;7.208;2023-03-05T07:05:44;8.80;;;1.20;;
70829;SDS011;58451;51.550;7.208;2023-03-05T07:07:16;10.80;;;1.60;;
70829;SDS011;58451;51.550;7.208;2023-03-05T07:08:48;12.60;;;1.70;;
70829;SDS011;58451;51.550;7.208;2023-03-05T07:10:20;5.50;;;1.10;;
70829;SDS011;58451;51.550;7.208;2023-03-05T07:11:52;9.50;;;1.90;;
70829;SDS011;58451;51.550;7.208;2023-03-05T07:13:24;9.00;;;1.70;;
70829;SDS011;58451;51.550;7.208;2023-03-05T07:14:56;11.00;;;2.20;;
70829;SDS011;58451;51.550;7.208;2023-03-05T07:16:30;11.90;;;1.60;;
70829;SDS011;58451;51.550;7.208;2023-03-05T07:18:04;9.50;;;1.70;;
70829;SDS011;58451;51.550;7.208;2023-03-05T07:19:37;11.20;;;2.00;;
70829;SDS011;58451;51.550;7.208;2023-03-05T07:21:11;12.10;;;1.90;;
70829;SDS011;58451;51.550;7.208;2023-03-05T07:22:46;10.40;;;2.30;;
70829;SDS011;58451;51.550;7.208;2023-03-05T07:24:18;9.80;;;1.70;;
70829;SDS011;58451;51.550;7.208;2023-03-05T07:25:49;9.00;;;1.50;;
70829;SDS011;58451;51.550;7.208;2023-03-05T07:27:21;13.50;;;2.30;;
70829;SDS011;58451;51.550;7.208;2023-03-05T07:28:55;8.00;;;1.30;;
70829;SDS011;58451;51.550;7.208;2023-03-05T07:30:27;10.90;;;2.00;;
70829;SDS011;58451;51.550;7.208;2023-03-05T07:31:59;10.20;;;1.80;;
70829;SDS011;58451;51.550;7.208;2023-03-05T07:33:31;8.90;;;1.70;;
70829;SDS011;58451;51.550;7.208;2023-03-05T07:35:06;5.70;;;1.10;;
70829;SDS011;58451;51.550;7.208;2023-03-05T07:36:38;9.10;;;1.90;;
70829;SDS011;58451;51.550;7.208;2023-03-05T07:38:10;9.20;;;1.90;;
70829;SDS011;58451;51.550;7.208;2023-03-05T07:39:42;10.50;;;2.00;;
70829;SDS011;58451;51.550;7.208;2023-03-05T07:41:18;9.70;;;1.90;;
70829;SDS011;58451;51.550;7.208;2023-03-05T07:42:51;9.40;;;1.70;;
70829;SDS011;58451;51.550;7.208;2023-03-05T07:44:27;6.90;;;1.50;;
70829;SDS011;58451;51.550;7.208;2023-03-05T07:46:03;9.40;;;2.30;;
70829;SDS011;58451;51.550;7.208;2023-03-05T07:47:36;8.10;;;1.90;;
70829;SDS011;58451;51.550;7.208;2023-03-05T07:49:07;8.70;;;1.80;;
70829;SDS011;58451;51.550;7.208;2023-03-05T07:50:39;9.30;;;1.60;;
70829;SDS011;58451;51.550;7.208;2023-03-05T07:52:12;14.10;;;2.20;;
70829;SDS011;58451;51.550;7.208;2023-03-05T07:53:44;11.60;;;2.60;;
70829;SDS011;58451;51.550;7.208;2023-03-05T07:55:17;7.00;;;1.70;;
70829;SDS011;58451;51.550;7.208;2023-03-05T07:56:50;10.20;;;1.90;;
70829;SDS011;58451;51.550;7.208;2023-03-05T07:58:22;8.30;;;2.00;;
70829;SDS011;58451;51.550;7.208;2023-03-05T07:59:53;13.00;;;2.30;;
70829;SDS011;58451;51.550;7.208;2023-03-05T08:01:26;8.70;;;2.10;;
70829;SDS011;58451;51.550;7.208;2023-03-05T08:02:58;8.40;;;2.30;;
70829;SDS011;58451;51.550;7.208;2023-03-05T08:04:30;10.00;;;1.70;;
70829;SDS011;58451;51.550;7.208;2023-03-05T08:06:04;9.70;;;1.80;;
70829;SDS011;58451;51.550;7.208;2023-03-05T08:07:37;8.60;;;1.70;;
70829;SDS011;58451;51.550;7.208;2023-03-05T08:09:08;10.90;;;2.30;;
70829;SDS011;58451;51.550;7.208;2023-03-05T08:10:40;7.80;;;1.50;;
70829;SDS011;58451;51.550;7.208;2023-03-05T08:12:12;11.10;;;2.00;;
70829;SDS011;58451;51.550;7.208;2023-03-05T08:13:46;6.90;;;1.60;;
70829;SDS011;58451;51.550;7.208;2023-03-05T08:15:17;9.90;;;1.30;;
70829;SDS011;58451;51.550;7.208;2023-03-05T08:16:49;8.40;;;1.40;;
70829;SDS011;58451;51.550;7.208;2023-03-05T08:18:22;6.70;;;1.40;;
70829;SDS011;58451;51.550;7.208;2023-03-05T08:19:54;7.80;;;1.70;;
70829;SDS011;58451;51.550;7.208;2023-03-05T08:21:33;8.20;;;1.50;;
70829;SDS011;58451;51.550;7.208;2023-03-05T08:23:06;9.10;;;2.10;;
70829;SDS011;58451;51.550;7.208;2023-03-05T08:24:38;10.40;;;2.10;;
70829;SDS011;58451;51.550;7.208;2023-03-05T08:26:12;7.60;;;2.00;;
70829;SDS011;58451;51.550;7.208;2023-03-05T08:27:46;12.10;;;2.40;;
70829;SDS011;58451;51.550;7.208;2023-03-05T08:29:18;7.20;;;2.30;;
70829;SDS011;58451;51.550;7.208;2023-03-05T08:30:50;6.10;;;2.40;;
70829;SDS011;58451;51.550;7.208;2023-03-05T08:32:22;7.20;;;2.40;;
70829;SDS011;58451;51.550;7.208;2023-03-05T08:33:55;5.30;;;2.10;;
70829;SDS011;58451;51.550;7.208;2023-03-05T08:35:29;5.30;;;1.80;;
70829;SDS011;58451;51.550;7.208;2023-03-05T08:37:01;6.80;;;2.00;;
70829;SDS011;58451;51.550;7.208;2023-03-05T08:38:33;8.50;;;2.40;;
70829;SDS011;58451;51.550;7.208;2023-03-05T08:40:05;10.40;;;2.60;;
70829;SDS011;58451;51.550;7.208;2023-03-05T08:41:37;5.50;;;1.80;;
70829;SDS011;58451;51.550;7.208;2023-03-05T08:43:09;8.90;;;2.50;;
70829;SDS011;58451;51.550;7.208;2023-03-05T08:44:41;8.00;;;3.10;;
70829;SDS011;58451;51.550;7.208;2023-03-05T08:46:13;7.50;;;2.60;;
70829;SDS011;58451;51.550;7.208;2023-03-05T08:47:46;6.80;;;1.70;;
70829;SDS011;58451;51.550;7.208;2023-03-05T08:49:18;9.60;;;2.60;;
70829;SDS011;58451;51.550;7.208;2023-03-05T08:50:50;9.60;;;2.90;;
70829;SDS011;58451;51.550;7.208;2023-03-05T08:52:22;10.50;;;2.90;;
70829;SDS011;58451;51.550;7.208;2023-03-05T08:53:54;8.80;;;3.40;;
70829;SDS011;58451;51.550;7.208;2023-03-05T08:55:29;10.60;;;4.30;;
70829;SDS011;58451;51.550;7.208;2023-03-05T08:57:00;12.50;;;4.70;;
70829;SDS011;58451;51.550;7.208;2023-03-05T08:58:32;10.10;;;4.90;;
70829;SDS011;58451;51.550;7.208;2023-03-05T09:00:05;9.90;;;4.40;;
70829;SDS011;58451;51.550;7.208;2023-03-05T09:01:37;11.80;;;4.50;;
70829;SDS011;58451;51.550;7.208;2023-03-05T09:03:09;13.50;;;4.50;;
70829;SDS011;58451;51.550;7.208;2023-03-05T09:04:41;10.00;;;4.20;;
70829;SDS011;58451;51.550;7.208;2023-03-05T09:06:13;11.60;;;4.30;;
70829;SDS011;58451;51.550;7.208;2023-03-05T09:07:45;8.60;;;3.70;;
70829;SDS011;58451;51.550;7.208;2023-03-05T09:09:16;9.60;;;3.80;;
70829;SDS011;58451;51.550;7.208;2023-03-05T09:10:51;10.20;;;4.30;;
70829;SDS011;58451;51.550;7.208;2023-03-05T09:12:23;9.20;;;3.60;;
70829;SDS011;58451;51.550;7.208;2023-03-05T09:13:55;8.60;;;3.60;;
70829;SDS011;58451;51.550;7.208;2023-03-05T09:15:27;9.00;;;3.40;;
70829;SDS011;58451;51.550;7.208;2023-03-05T09:17:01;12.90;;;3.60;;
70829;SDS011;58451;51.550;7.208;2023-03-05T09:18:33;10.60;;;3.40;;
70829;SDS011;58451;51.550;7.208;2023-03-05T09:20:11;11.00;;;3.60;;